sensor_id;sensor_type;location;lat;lon;timestamp;temperature;humidity
24384;DHT22;12504;52.870;8.798;2023-02-11T00:01:31;5.80;99.90
24384;DHT22;12504;52.870;8.798;2023-02-11T00:03:57;5.80;99.90
24384;DHT22;12504;52.870;8.798;2023-02-11T00:06:24;5.80;99.90
24384;DHT22;12504;52.870;8.798;2023-02-11T00:08:50;5.80;99.90
24384;DHT22;12504;52.870;8.798;2023-02-11T00:11:17;5.80;99.90
24384;DHT22;12504;52.870;8.798;2023-02-11T00:13:44;5.80;99.90
24384;DHT22;12504;52.870;8.798;2023-02-11T00:16:15;5.80;99.90
24384;DHT22;12504;52.870;8.798;2023-02-11T00:18:42;5.80;99.90
24384;DHT22;12504;52.870;8.798;2023-02-11T00:21:10;5.80;99.90
24384;DHT22;12504;52.870;8.798;2023-02-11T00:23:36;5.90;99.90
24384;DHT22;12504;52.870;8.798;2023-02-11T00:26:03;5.90;99.90
24384;DHT22;12504;52.870;8.798;2023-02-11T00:28:35;5.90;99.90
24384;DHT22;12504;52.870;8.798;2023-02-11T00:31:01;5.90;99.90
24384;DHT22;12504;52.870;8.798;2023-02-11T00:33:27;6.00;99.90
24384;DHT22;12504;52.870;8.798;2023-02-11T00:35:52;6.00;99.90
24384;DHT22;12504;52.870;8.798;2023-02-11T00:38:18;6.00;99.90
24384;DHT22;12504;52.870;8.798;2023-02-11T00:40:45;6.00;99.90
24384;DHT22;12504;52.870;8.798;2023-02-11T00:43:10;6.00;99.90
24384;DHT22;12504;52.870;8.798;2023-02-11T00:45:36;6.00;99.90
24384;DHT22;12504;52.870;8.798;2023-02-11T00:48:04;6.10;99.90
24384;DHT22;12504;52.870;8.798;2023-02-11T00:50:30;6.10;99.90
24384;DHT22;12504;52.870;8.798;2023-02-11T00:52:55;6.10;99.90
24384;DHT22;12504;52.870;8.798;2023-02-11T00:55:21;6.10;99.90
24384;DHT22;12504;52.870;8.798;2023-02-11T00:57:48;6.10;99.90
24384;DHT22;12504;52.870;8.798;2023-02-11T01:00:15;6.10;99.90
24384;DHT22;12504;52.870;8.798;2023-02-11T01:02:41;6.10;99.90
24384;DHT22;12504;52.870;8.798;2023-02-11T01:05:08;6.10;99.90
24384;DHT22;12504;52.870;8.798;2023-02-11T01:07:34;6.10;99.90
24384;DHT22;12504;52.870;8.798;2023-02-11T01:09:59;6.20;99.90
24384;DHT22;12504;52.870;8.798;2023-02-11T01:12:28;6.10;99.90
24384;DHT22;12504;52.870;8.798;2023-02-11T01:14:56;6.10;99.90
24384;DHT22;12504;52.870;8.798;2023-02-11T01:17:22;6.20;99.90
24384;DHT22;12504;52.870;8.798;2023-02-11T01:19:48;6.10;99.90
24384;DHT22;12504;52.870;8.798;2023-02-11T01:22:14;6.20;99.90
24384;DHT22;12504;52.870;8.798;2023-02-11T01:24:40;6.10;99.90
24384;DHT22;12504;52.870;8.798;2023-02-11T01:27:06;6.10;99.90
24384;DHT22;12504;52.870;8.798;2023-02-11T01:29:32;6.20;99.90
24384;DHT22;12504;52.870;8.798;2023-02-11T01:31:59;6.20;99.90
24384;DHT22;12504;52.870;8.798;2023-02-11T01:34:25;6.20;99.90
24384;DHT22;12504;52.870;8.798;2023-02-11T01:36:58;6.20;99.90
24384;DHT22;12504;52.870;8.798;2023-02-11T01:39:24;6.20;99.90
24384;DHT22;12504;52.870;8.798;2023-02-11T01:41:51;6.20;99.90
24384;DHT22;12504;52.870;8.798;2023-02-11T01:44:25;6.20;99.90
24384;DHT22;12504;52.870;8.798;2023-02-11T01:46:52;6.20;99.90
24384;DHT22;12504;52.870;8.798;2023-02-11T01:52:12;6.20;99.90
24384;DHT22;12504;52.870;8.798;2023-02-11T01:54:45;6.20;99.90
24384;DHT22;12504;52.870;8.798;2023-02-11T01:57:33;6.20;99.90
24384;DHT22;12504;52.870;8.798;2023-02-11T02:00:34;6.20;99.90
24384;DHT22;12504;52.870;8.798;2023-02-11T02:02:57;6.20;99.90
24384;DHT22;12504;52.870;8.798;2023-02-11T02:05:35;6.20;99.90
24384;DHT22;12504;52.870;8.798;2023-02-11T02:08:20;6.20;99.90
24384;DHT22;12504;52.870;8.798;2023-02-11T02:10:49;6.20;99.90
24384;DHT22;12504;52.870;8.798;2023-02-11T02:13:18;6.20;99.90
24384;DHT22;12504;52.870;8.798;2023-02-11T02:16:02;6.30;99.90
24384;DHT22;12504;52.870;8.798;2023-02-11T02:32:22;6.30;99.90
24384;DHT22;12504;52.870;8.798;2023-02-11T02:35:07;6.30;99.90
24384;DHT22;12504;52.870;8.798;2023-02-11T02:37:40;6.30;99.90
24384;DHT22;12504;52.870;8.798;2023-02-11T02:40:14;6.30;99.90
24384;DHT22;12504;52.870;8.798;2023-02-11T02:42:41;6.30;99.90
24384;DHT22;12504;52.870;8.798;2023-02-11T02:45:09;6.30;99.90
24384;DHT22;12504;52.870;8.798;2023-02-11T02:47:36;6.30;99.90
24384;DHT22;12504;52.870;8.798;2023-02-11T02:50:03;6.30;99.90
24384;DHT22;12504;52.870;8.798;2023-02-11T02:53:13;6.30;99.90
24384;DHT22;12504;52.870;8.798;2023-02-11T02:59:04;6.30;99.90
24384;DHT22;12504;52.870;8.798;2023-02-11T03:04:47;6.30;99.90
24384;DHT22;12504;52.870;8.798;2023-02-11T03:09:59;6.30;99.90
24384;DHT22;12504;52.870;8.798;2023-02-11T03:12:27;6.30;99.90
24384;DHT22;12504;52.870;8.798;2023-02-11T03:14:55;6.30;99.90
24384;DHT22;12504;52.870;8.798;2023-02-11T03:17:22;6.30;99.90
24384;DHT22;12504;52.870;8.798;2023-02-11T03:19:49;6.30;99.90
24384;DHT22;12504;52.870;8.798;2023-02-11T03:22:31;6.30;99.90
24384;DHT22;12504;52.870;8.798;2023-02-11T03:24:57;6.30;99.90
24384;DHT22;12504;52.870;8.798;2023-02-11T03:27:31;6.30;99.90
24384;DHT22;12504;52.870;8.798;2023-02-11T03:30:26;6.30;99.90
24384;DHT22;12504;52.870;8.798;2023-02-11T03:32:56;6.30;99.90
24384;DHT22;12504;52.870;8.798;2023-02-11T03:35:31;6.40;99.90
24384;DHT22;12504;52.870;8.798;2023-02-11T03:38:11;6.40;99.90
24384;DHT22;12504;52.870;8.798;2023-02-11T03:40:40;6.40;99.90
24384;DHT22;12504;52.870;8.798;2023-02-11T03:43:10;6.40;99.90
24384;DHT22;12504;52.870;8.798;2023-02-11T03:45:37;6.40;99.90
24384;DHT22;12504;52.870;8.798;2023-02-11T03:48:21;6.40;99.90
24384;DHT22;12504;52.870;8.798;2023-02-11T03:50:50;6.50;99.90
24384;DHT22;12504;52.870;8.798;2023-02-11T03:53:17;6.40;99.90
24384;DHT22;12504;52.870;8.798;2023-02-11T03:55:44;6.50;99.90
24384;DHT22;12504;52.870;8.798;2023-02-11T03:58:11;6.50;99.90
24384;DHT22;12504;52.870;8.798;2023-02-11T04:00:39;6.50;99.90
24384;DHT22;12504;52.870;8.798;2023-02-11T04:03:06;6.50;99.90
24384;DHT22;12504;52.870;8.798;2023-02-11T04:05:32;6.50;99.90
24384;DHT22;12504;52.870;8.798;2023-02-11T04:07:58;6.50;99.90
24384;DHT22;12504;52.870;8.798;2023-02-11T04:10:24;6.50;99.90
24384;DHT22;12504;52.870;8.798;2023-02-11T04:12:49;6.50;99.90
24384;DHT22;12504;52.870;8.798;2023-02-11T04:15:15;6.60;99.90
24384;DHT22;12504;52.870;8.798;2023-02-11T04:17:41;6.60;99.90
24384;DHT22;12504;52.870;8.798;2023-02-11T04:20:08;6.60;99.90
24384;DHT22;12504;52.870;8.798;2023-02-11T04:22:34;6.50;99.90
24384;DHT22;12504;52.870;8.798;2023-02-11T04:24:59;6.60;99.90
24384;DHT22;12504;52.870;8.798;2023-02-11T04:27:25;6.60;99.90
24384;DHT22;12504;52.870;8.798;2023-02-11T04:29:51;6.60;99.90
24384;DHT22;12504;52.870;8.798;2023-02-11T04:32:17;6.60;99.90
24384;DHT22;12504;52.870;8.798;2023-02-11T04:34:42;6.60;99.90
24384;DHT22;12504;52.870;8.798;2023-02-11T04:37:08;6.60;99.90
24384;DHT22;12504;52.870;8.798;2023-02-11T04:39:34;6.60;99.90
24384;DHT22;12504;52.870;8.798;2023-02-11T04:41:59;6.60;99.90
24384;DHT22;12504;52.870;8.798;2023-02-11T04:44:25;6.60;99.90
24384;DHT22;12504;52.870;8.798;2023-02-11T04:46:51;6.60;99.90
24384;DHT22;12504;52.870;8.798;2023-02-11T04:49:17;6.70;99.90
24384;DHT22;12504;52.870;8.798;2023-02-11T04:51:43;6.70;99.90
24384;DHT22;12504;52.870;8.798;2023-02-11T04:54:12;6.70;99.90
24384;DHT22;12504;52.870;8.798;2023-02-11T04:56:38;6.70;99.90
24384;DHT22;12504;52.870;8.798;2023-02-11T04:59:05;6.70;99.90
24384;DHT22;12504;52.870;8.798;2023-02-11T05:01:30;6.60;99.90
24384;DHT22;12504;52.870;8.798;2023-02-11T05:03:56;6.70;99.90
24384;DHT22;12504;52.870;8.798;2023-02-11T05:06:22;6.70;99.90
24384;DHT22;12504;52.870;8.798;2023-02-11T05:08:47;6.70;99.90
24384;DHT22;12504;52.870;8.798;2023-02-11T05:11:16;6.70;99.90
24384;DHT22;12504;52.870;8.798;2023-02-11T05:13:42;6.60;99.90
24384;DHT22;12504;52.870;8.798;2023-02-11T05:16:08;6.60;99.90
24384;DHT22;12504;52.870;8.798;2023-02-11T05:18:36;6.60;99.90
24384;DHT22;12504;52.870;8.798;2023-02-11T05:21:07;6.70;99.90
24384;DHT22;12504;52.870;8.798;2023-02-11T05:23:33;6.70;99.90
24384;DHT22;12504;52.870;8.798;2023-02-11T05:26:00;6.70;99.90
24384;DHT22;12504;52.870;8.798;2023-02-11T05:28:29;6.70;99.90
24384;DHT22;12504;52.870;8.798;2023-02-11T05:30:55;6.70;99.90
24384;DHT22;12504;52.870;8.798;2023-02-11T05:33:24;6.70;99.90
24384;DHT22;12504;52.870;8.798;2023-02-11T05:35:50;6.70;99.90
24384;DHT22;12504;52.870;8.798;2023-02-11T05:38:15;6.70;99.90
24384;DHT22;12504;52.870;8.798;2023-02-11T05:40:41;6.70;99.90
24384;DHT22;12504;52.870;8.798;2023-02-11T05:43:07;6.70;99.90
24384;DHT22;12504;52.870;8.798;2023-02-11T05:45:33;6.70;99.90
24384;DHT22;12504;52.870;8.798;2023-02-11T05:47:58;6.70;99.90
24384;DHT22;12504;52.870;8.798;2023-02-11T05:50:25;6.70;99.90
24384;DHT22;12504;52.870;8.798;2023-02-11T05:52:51;6.70;99.90
24384;DHT22;12504;52.870;8.798;2023-02-11T05:55:17;6.70;99.90
24384;DHT22;12504;52.870;8.798;2023-02-11T05:57:42;6.70;99.90
24384;DHT22;12504;52.870;8.798;2023-02-11T06:00:09;6.70;99.90
24384;DHT22;12504;52.870;8.798;2023-02-11T06:02:38;6.70;99.90
24384;DHT22;12504;52.870;8.798;2023-02-11T06:05:03;6.70;99.90
24384;DHT22;12504;52.870;8.798;2023-02-11T06:07:29;6.70;99.90
24384;DHT22;12504;52.870;8.798;2023-02-11T06:09:55;6.70;99.90
24384;DHT22;12504;52.870;8.798;2023-02-11T06:12:20;6.80;99.90
24384;DHT22;12504;52.870;8.798;2023-02-11T06:14:46;6.70;99.90
24384;DHT22;12504;52.870;8.798;2023-02-11T06:17:11;6.70;99.90
24384;DHT22;12504;52.870;8.798;2023-02-11T06:19:37;6.70;99.90
24384;DHT22;12504;52.870;8.798;2023-02-11T06:22:03;6.70;99.90
24384;DHT22;12504;52.870;8.798;2023-02-11T06:24:28;6.80;99.90
24384;DHT22;12504;52.870;8.798;2023-02-11T06:26:54;6.80;99.90
24384;DHT22;12504;52.870;8.798;2023-02-11T06:29:19;6.80;99.90
24384;DHT22;12504;52.870;8.798;2023-02-11T06:31:45;6.70;99.90
24384;DHT22;12504;52.870;8.798;2023-02-11T06:34:11;6.70;99.90
24384;DHT22;12504;52.870;8.798;2023-02-11T06:36:39;6.70;99.90
24384;DHT22;12504;52.870;8.798;2023-02-11T06:39:06;6.70;99.90
24384;DHT22;12504;52.870;8.798;2023-02-11T06:41:32;6.70;99.90
24384;DHT22;12504;52.870;8.798;2023-02-11T06:43:58;6.60;99.90
24384;DHT22;12504;52.870;8.798;2023-02-11T06:46:23;6.60;99.90
24384;DHT22;12504;52.870;8.798;2023-02-11T06:48:49;6.70;99.90
24384;DHT22;12504;52.870;8.798;2023-02-11T06:51:15;6.70;99.90
24384;DHT22;12504;52.870;8.798;2023-02-11T06:53:43;6.70;99.90
24384;DHT22;12504;52.870;8.798;2023-02-11T06:56:13;6.70;99.90
24384;DHT22;12504;52.870;8.798;2023-02-11T06:58:38;6.70;99.90
24384;DHT22;12504;52.870;8.798;2023-02-11T07:01:06;6.60;99.90
24384;DHT22;12504;52.870;8.798;2023-02-11T07:03:33;6.60;99.90
24384;DHT22;12504;52.870;8.798;2023-02-11T07:06:01;6.60;99.90
24384;DHT22;12504;52.870;8.798;2023-02-11T07:08:26;6.70;99.90
24384;DHT22;12504;52.870;8.798;2023-02-11T07:10:52;6.70;99.90
24384;DHT22;12504;52.870;8.798;2023-02-11T07:13:18;6.70;99.90
24384;DHT22;12504;52.870;8.798;2023-02-11T07:15:43;6.70;99.90
24384;DHT22;12504;52.870;8.798;2023-02-11T07:18:09;6.80;99.90
24384;DHT22;12504;52.870;8.798;2023-02-11T07:20:36;6.70;99.90
24384;DHT22;12504;52.870;8.798;2023-02-11T07:23:02;6.70;99.90
24384;DHT22;12504;52.870;8.798;2023-02-11T07:25:27;6.70;99.90
24384;DHT22;12504;52.870;8.798;2023-02-11T07:27:53;6.70;99.90
24384;DHT22;12504;52.870;8.798;2023-02-11T07:30:19;6.70;99.90
24384;DHT22;12504;52.870;8.798;2023-02-11T07:32:44;6.70;99.90
24384;DHT22;12504;52.870;8.798;2023-02-11T07:35:10;6.70;99.90
24384;DHT22;12504;52.870;8.798;2023-02-11T07:37:35;6.70;99.90
24384;DHT22;12504;52.870;8.798;2023-02-11T07:40:02;6.70;99.90
24384;DHT22;12504;52.870;8.798;2023-02-11T07:42:27;6.80;99.90
24384;DHT22;12504;52.870;8.798;2023-02-11T07:44:53;6.80;99.90
24384;DHT22;12504;52.870;8.798;2023-02-11T07:47:19;6.80;99.90
24384;DHT22;12504;52.870;8.798;2023-02-11T07:49:44;6.90;99.90
24384;DHT22;12504;52.870;8.798;2023-02-11T07:52:10;6.90;99.90
24384;DHT22;12504;52.870;8.798;2023-02-11T07:54:36;6.90;99.90
24384;DHT22;12504;52.870;8.798;2023-02-11T07:57:01;6.90;99.90
24384;DHT22;12504;52.870;8.798;2023-02-11T07:59:27;6.90;99.90
24384;DHT22;12504;52.870;8.798;2023-02-11T08:01:53;6.90;99.90
24384;DHT22;12504;52.870;8.798;2023-02-11T08:04:18;7.00;99.90
24384;DHT22;12504;52.870;8.798;2023-02-11T08:06:44;7.00;99.90
24384;DHT22;12504;52.870;8.798;2023-02-11T08:09:14;7.00;99.90
24384;DHT22;12504;52.870;8.798;2023-02-11T08:11:41;7.00;99.90
24384;DHT22;12504;52.870;8.798;2023-02-11T08:14:07;7.00;99.90
24384;DHT22;12504;52.870;8.798;2023-02-11T08:16:34;7.10;99.90
24384;DHT22;12504;52.870;8.798;2023-02-11T08:19:05;7.10;99.90
24384;DHT22;12504;52.870;8.798;2023-02-11T08:21:31;7.10;99.90
24384;DHT22;12504;52.870;8.798;2023-02-11T08:23:57;7.10;99.90
24384;DHT22;12504;52.870;8.798;2023-02-11T08:26:26;7.20;99.90
24384;DHT22;12504;52.870;8.798;2023-02-11T08:28:54;7.20;99.90
24384;DHT22;12504;52.870;8.798;2023-02-11T08:31:28;7.20;99.90
24384;DHT22;12504;52.870;8.798;2023-02-11T08:33:55;7.20;99.90
24384;DHT22;12504;52.870;8.798;2023-02-11T08:36:27;7.30;99.90
24384;DHT22;12504;52.870;8.798;2023-02-11T08:38:54;7.30;99.90
24384;DHT22;12504;52.870;8.798;2023-02-11T08:41:21;7.30;99.90
24384;DHT22;12504;52.870;8.798;2023-02-11T08:43:46;7.30;99.90
24384;DHT22;12504;52.870;8.798;2023-02-11T08:46:14;7.30;99.90
24384;DHT22;12504;52.870;8.798;2023-02-11T08:48:40;7.40;99.90
24384;DHT22;12504;52.870;8.798;2023-02-11T08:51:14;7.40;99.90
24384;DHT22;12504;52.870;8.798;2023-02-11T08:53:40;7.40;99.90
24384;DHT22;12504;52.870;8.798;2023-02-11T08:56:07;7.40;99.90
24384;DHT22;12504;52.870;8.798;2023-02-11T08:58:33;7.40;99.90
24384;DHT22;12504;52.870;8.798;2023-02-11T09:00:58;7.40;99.90
24384;DHT22;12504;52.870;8.798;2023-02-11T09:03:24;7.40;99.90
24384;DHT22;12504;52.870;8.798;2023-02-11T09:05:50;7.40;99.90
24384;DHT22;12504;52.870;8.798;2023-02-11T09:08:18;7.50;99.90
24384;DHT22;12504;52.870;8.798;2023-02-11T09:10:44;7.50;99.90
24384;DHT22;12504;52.870;8.798;2023-02-11T09:13:10;7.50;99.90
24384;DHT22;12504;52.870;8.798;2023-02-11T09:15:44;7.50;99.90
24384;DHT22;12504;52.870;8.798;2023-02-11T09:18:11;7.60;99.90
24384;DHT22;12504;52.870;8.798;2023-02-11T09:20:36;7.60;99.90
24384;DHT22;12504;52.870;8.798;2023-02-11T09:23:02;7.60;99.90
24384;DHT22;12504;52.870;8.798;2023-02-11T09:25:30;7.60;99.90
24384;DHT22;12504;52.870;8.798;2023-02-11T09:27:56;7.70;99.90
24384;DHT22;12504;52.870;8.798;2023-02-11T09:30:22;7.60;99.90
24384;DHT22;12504;52.870;8.798;2023-02-11T09:32:47;7.60;99.90
24384;DHT22;12504;52.870;8.798;2023-02-11T09:35:13;7.70;99.90
24384;DHT22;12504;52.870;8.798;2023-02-11T09:37:39;7.70;99.90
24384;DHT22;12504;52.870;8.798;2023-02-11T09:40:05;7.70;99.90
24384;DHT22;12504;52.870;8.798;2023-02-11T09:43:03;7.70;99.90
24384;DHT22;12504;52.870;8.798;2023-02-11T09:45:31;7.60;99.90
24384;DHT22;12504;52.870;8.798;2023-02-11T09:48:09;7.70;99.90
24384;DHT22;12504;52.870;8.798;2023-02-11T09:50:42;7.70;99.90
24384;DHT22;12504;52.870;8.798;2023-02-11T09:53:26;7.70;99.90
24384;DHT22;12504;52.870;8.798;2023-02-11T09:55:55;7.70;99.90
24384;DHT22;12504;52.870;8.798;2023-02-11T09:58:37;7.70;99.90
24384;DHT22;12504;52.870;8.798;2023-02-11T10:03:59;7.50;99.90
24384;DHT22;12504;52.870;8.798;2023-02-11T10:06:49;7.60;99.90
24384;DHT22;12504;52.870;8.798;2023-02-11T10:09:59;7.50;99.90
24384;DHT22;12504;52.870;8.798;2023-02-11T10:12:50;7.50;99.90
24384;DHT22;12504;52.870;8.798;2023-02-11T10:18:00;7.50;99.90
24384;DHT22;12504;52.870;8.798;2023-02-11T10:23:21;7.60;99.90
24384;DHT22;12504;52.870;8.798;2023-02-11T10:25:50;7.60;99.90
24384;DHT22;12504;52.870;8.798;2023-02-11T10:28:23;7.60;99.90
24384;DHT22;12504;52.870;8.798;2023-02-11T10:30:53;7.60;99.90
24384;DHT22;12504;52.870;8.798;2023-02-11T10:33:42;7.60;99.90
24384;DHT22;12504;52.870;8.798;2023-02-11T10:36:13;7.60;99.90
24384;DHT22;12504;52.870;8.798;2023-02-11T10:38:40;7.60;99.90
24384;DHT22;12504;52.870;8.798;2023-02-11T10:41:14;7.60;99.90
24384;DHT22;12504;52.870;8.798;2023-02-11T10:43:48;7.70;99.90
24384;DHT22;12504;52.870;8.798;2023-02-11T10:46:21;7.70;99.90
24384;DHT22;12504;52.870;8.798;2023-02-11T10:48:50;7.70;99.90
24384;DHT22;12504;52.870;8.798;2023-02-11T10:51:28;7.70;99.90
24384;DHT22;12504;52.870;8.798;2023-02-11T10:56:31;7.70;99.90
24384;DHT22;12504;52.870;8.798;2023-02-11T10:59:06;7.70;99.90
24384;DHT22;12504;52.870;8.798;2023-02-11T11:01:49;7.60;99.90
24384;DHT22;12504;52.870;8.798;2023-02-11T11:04:39;7.70;99.90
24384;DHT22;12504;52.870;8.798;2023-02-11T11:07:25;7.70;99.90
24384;DHT22;12504;52.870;8.798;2023-02-11T11:10:25;7.70;99.90
24384;DHT22;12504;52.870;8.798;2023-02-11T11:12:51;7.70;99.90
24384;DHT22;12504;52.870;8.798;2023-02-11T11:15:22;7.80;99.90
24384;DHT22;12504;52.870;8.798;2023-02-11T11:17:50;7.80;99.90
24384;DHT22;12504;52.870;8.798;2023-02-11T11:20:28;7.80;99.90
24384;DHT22;12504;52.870;8.798;2023-02-11T11:23:17;7.80;99.90
24384;DHT22;12504;52.870;8.798;2023-02-11T11:26:07;7.80;99.90
24384;DHT22;12504;52.870;8.798;2023-02-11T11:28:49;7.80;99.90
24384;DHT22;12504;52.870;8.798;2023-02-11T11:31:22;7.70;99.90
24384;DHT22;12504;52.870;8.798;2023-02-11T11:33:48;7.80;99.90
24384;DHT22;12504;52.870;8.798;2023-02-11T11:36:29;7.80;99.90
24384;DHT22;12504;52.870;8.798;2023-02-11T11:38:59;7.80;99.90
24384;DHT22;12504;52.870;8.798;2023-02-11T11:41:31;7.90;99.90
24384;DHT22;12504;52.870;8.798;2023-02-11T11:46:37;7.90;99.90
24384;DHT22;12504;52.870;8.798;2023-02-11T11:51:35;7.90;99.90
24384;DHT22;12504;52.870;8.798;2023-02-11T11:54:14;7.90;99.90
24384;DHT22;12504;52.870;8.798;2023-02-11T11:56:51;7.90;99.90
24384;DHT22;12504;52.870;8.798;2023-02-11T11:59:17;7.90;99.90
24384;DHT22;12504;52.870;8.798;2023-02-11T12:13:00;7.90;99.90
24384;DHT22;12504;52.870;8.798;2023-02-11T12:26:00;8.00;99.90
24384;DHT22;12504;52.870;8.798;2023-02-11T12:31:43;7.90;99.90
24384;DHT22;12504;52.870;8.798;2023-02-11T12:34:35;7.90;99.90
24384;DHT22;12504;52.870;8.798;2023-02-11T12:42:49;7.90;99.90
24384;DHT22;12504;52.870;8.798;2023-02-11T12:56:36;8.00;99.90
24384;DHT22;12504;52.870;8.798;2023-02-11T12:59:08;8.00;99.90
24384;DHT22;12504;52.870;8.798;2023-02-11T13:01:41;8.10;99.90
24384;DHT22;12504;52.870;8.798;2023-02-11T13:04:20;8.10;99.90
24384;DHT22;12504;52.870;8.798;2023-02-11T13:06:53;8.10;99.90
24384;DHT22;12504;52.870;8.798;2023-02-11T13:10:00;8.20;99.90
24384;DHT22;12504;52.870;8.798;2023-02-11T13:12:31;8.30;99.90
24384;DHT22;12504;52.870;8.798;2023-02-11T13:15:17;8.30;99.90
24384;DHT22;12504;52.870;8.798;2023-02-11T13:17:49;8.30;99.90
24384;DHT22;12504;52.870;8.798;2023-02-11T13:23:45;8.40;99.90
24384;DHT22;12504;52.870;8.798;2023-02-11T13:26:27;8.50;99.90
24384;DHT22;12504;52.870;8.798;2023-02-11T13:31:34;8.50;99.90
24384;DHT22;12504;52.870;8.798;2023-02-11T13:34:00;8.60;99.90
24384;DHT22;12504;52.870;8.798;2023-02-11T13:36:28;8.60;99.90
24384;DHT22;12504;52.870;8.798;2023-02-11T13:39:19;8.60;99.90
24384;DHT22;12504;52.870;8.798;2023-02-11T13:41:48;8.60;99.90
24384;DHT22;12504;52.870;8.798;2023-02-11T13:46:51;8.60;99.90
24384;DHT22;12504;52.870;8.798;2023-02-11T13:49:21;8.60;99.90
24384;DHT22;12504;52.870;8.798;2023-02-11T13:51:48;8.70;99.90
24384;DHT22;12504;52.870;8.798;2023-02-11T13:54:36;8.70;99.90
24384;DHT22;12504;52.870;8.798;2023-02-11T13:59:51;8.70;99.90
24384;DHT22;12504;52.870;8.798;2023-02-11T14:02:23;8.70;99.90
24384;DHT22;12504;52.870;8.798;2023-02-11T14:16:23;8.90;99.90
24384;DHT22;12504;52.870;8.798;2023-02-11T14:30:35;8.80;99.90
24384;DHT22;12504;52.870;8.798;2023-02-11T14:33:37;8.80;99.90
24384;DHT22;12504;52.870;8.798;2023-02-11T14:41:54;8.80;99.90
24384;DHT22;12504;52.870;8.798;2023-02-11T14:44:20;8.80;99.90
24384;DHT22;12504;52.870;8.798;2023-02-11T14:46:49;8.80;99.90
24384;DHT22;12504;52.870;8.798;2023-02-11T14:49:27;8.80;99.90
24384;DHT22;12504;52.870;8.798;2023-02-11T14:54:38;8.80;99.90
24384;DHT22;12504;52.870;8.798;2023-02-11T14:57:17;8.80;99.90
24384;DHT22;12504;52.870;8.798;2023-02-11T14:59:58;8.80;99.90
24384;DHT22;12504;52.870;8.798;2023-02-11T15:02:28;8.80;99.90
24384;DHT22;12504;52.870;8.798;2023-02-11T15:04:54;8.80;99.90
24384;DHT22;12504;52.870;8.798;2023-02-11T15:07:20;8.80;99.90
24384;DHT22;12504;52.870;8.798;2023-02-11T15:09:51;8.80;99.90
24384;DHT22;12504;52.870;8.798;2023-02-11T15:12:23;8.80;99.90
24384;DHT22;12504;52.870;8.798;2023-02-11T15:14:52;8.80;99.90
24384;DHT22;12504;52.870;8.798;2023-02-11T15:17:21;8.80;99.90
24384;DHT22;12504;52.870;8.798;2023-02-11T15:19:51;8.80;99.90
24384;DHT22;12504;52.870;8.798;2023-02-11T15:22:32;8.80;99.90
24384;DHT22;12504;52.870;8.798;2023-02-11T15:25:10;8.80;99.90
24384;DHT22;12504;52.870;8.798;2023-02-11T15:27:38;8.80;99.90
24384;DHT22;12504;52.870;8.798;2023-02-11T15:32:45;8.80;99.90
24384;DHT22;12504;52.870;8.798;2023-02-11T15:35:11;8.80;99.90
24384;DHT22;12504;52.870;8.798;2023-02-11T15:37:38;8.80;99.90
24384;DHT22;12504;52.870;8.798;2023-02-11T15:40:16;8.80;99.90
24384;DHT22;12504;52.870;8.798;2023-02-11T15:43:01;8.80;99.90
24384;DHT22;12504;52.870;8.798;2023-02-11T15:48:05;8.80;99.90
24384;DHT22;12504;52.870;8.798;2023-02-11T15:50:34;8.70;99.90
24384;DHT22;12504;52.870;8.798;2023-02-11T15:53:19;8.70;99.90
24384;DHT22;12504;52.870;8.798;2023-02-11T15:55:47;8.70;99.90
24384;DHT22;12504;52.870;8.798;2023-02-11T15:58:13;8.70;99.90
24384;DHT22;12504;52.870;8.798;2023-02-11T16:00:46;8.70;99.90
24384;DHT22;12504;52.870;8.798;2023-02-11T16:03:19;8.70;99.90
24384;DHT22;12504;52.870;8.798;2023-02-11T16:05:45;8.70;99.90
24384;DHT22;12504;52.870;8.798;2023-02-11T16:08:23;8.70;99.90
24384;DHT22;12504;52.870;8.798;2023-02-11T16:10:58;8.70;99.90
24384;DHT22;12504;52.870;8.798;2023-02-11T16:13:25;8.70;99.90
24384;DHT22;12504;52.870;8.798;2023-02-11T16:16:02;8.70;99.90
24384;DHT22;12504;52.870;8.798;2023-02-11T16:18:42;8.70;99.90
24384;DHT22;12504;52.870;8.798;2023-02-11T16:21:14;8.70;99.90
24384;DHT22;12504;52.870;8.798;2023-02-11T16:23:52;8.70;99.90
24384;DHT22;12504;52.870;8.798;2023-02-11T16:26:31;8.60;99.90
24384;DHT22;12504;52.870;8.798;2023-02-11T16:29:44;8.70;99.90
24384;DHT22;12504;52.870;8.798;2023-02-11T16:31:52;8.70;99.90
24384;DHT22;12504;52.870;8.798;2023-02-11T16:34:23;8.70;99.90
24384;DHT22;12504;52.870;8.798;2023-02-11T16:36:50;8.70;99.90
24384;DHT22;12504;52.870;8.798;2023-02-11T16:39:17;8.70;99.90
24384;DHT22;12504;52.870;8.798;2023-02-11T16:41:43;8.60;99.90
24384;DHT22;12504;52.870;8.798;2023-02-11T16:44:09;8.60;99.90
24384;DHT22;12504;52.870;8.798;2023-02-11T16:46:35;8.60;99.90
24384;DHT22;12504;52.870;8.798;2023-02-11T16:49:15;8.60;99.90
24384;DHT22;12504;52.870;8.798;2023-02-11T16:51:42;8.60;99.90
24384;DHT22;12504;52.870;8.798;2023-02-11T16:54:12;8.60;99.90
24384;DHT22;12504;52.870;8.798;2023-02-11T16:56:38;8.60;99.90
24384;DHT22;12504;52.870;8.798;2023-02-11T16:59:04;8.60;99.90
24384;DHT22;12504;52.870;8.798;2023-02-11T17:01:31;8.60;99.90
24384;DHT22;12504;52.870;8.798;2023-02-11T17:03:56;8.60;99.90
24384;DHT22;12504;52.870;8.798;2023-02-11T17:06:22;8.60;99.90
24384;DHT22;12504;52.870;8.798;2023-02-11T17:08:48;8.60;99.90
24384;DHT22;12504;52.870;8.798;2023-02-11T17:11:14;8.60;99.90
24384;DHT22;12504;52.870;8.798;2023-02-11T17:13:42;8.60;99.90
24384;DHT22;12504;52.870;8.798;2023-02-11T17:16:16;8.60;99.90
24384;DHT22;12504;52.870;8.798;2023-02-11T17:18:42;8.50;99.90
24384;DHT22;12504;52.870;8.798;2023-02-11T17:21:07;8.60;99.90
24384;DHT22;12504;52.870;8.798;2023-02-11T17:23:33;8.50;99.90
24384;DHT22;12504;52.870;8.798;2023-02-11T17:25:59;8.60;99.90
24384;DHT22;12504;52.870;8.798;2023-02-11T17:28:24;8.50;99.90
24384;DHT22;12504;52.870;8.798;2023-02-11T17:30:50;8.50;99.90
24384;DHT22;12504;52.870;8.798;2023-02-11T17:33:16;8.50;99.90
24384;DHT22;12504;52.870;8.798;2023-02-11T17:35:43;8.50;99.90
24384;DHT22;12504;52.870;8.798;2023-02-11T17:38:09;8.50;99.90
24384;DHT22;12504;52.870;8.798;2023-02-11T17:40:35;8.50;99.90
24384;DHT22;12504;52.870;8.798;2023-02-11T17:43:01;8.50;99.90
24384;DHT22;12504;52.870;8.798;2023-02-11T17:45:27;8.60;99.90
24384;DHT22;12504;52.870;8.798;2023-02-11T17:47:53;8.50;99.90
24384;DHT22;12504;52.870;8.798;2023-02-11T17:50:18;8.50;99.90
24384;DHT22;12504;52.870;8.798;2023-02-11T17:52:44;8.60;99.90
24384;DHT22;12504;52.870;8.798;2023-02-11T17:55:10;8.50;99.90
24384;DHT22;12504;52.870;8.798;2023-02-11T17:57:36;8.50;99.90
24384;DHT22;12504;52.870;8.798;2023-02-11T18:00:03;8.50;99.90
24384;DHT22;12504;52.870;8.798;2023-02-11T18:02:38;8.50;99.90
24384;DHT22;12504;52.870;8.798;2023-02-11T18:05:04;8.50;99.90
24384;DHT22;12504;52.870;8.798;2023-02-11T18:07:29;8.50;99.90
24384;DHT22;12504;52.870;8.798;2023-02-11T18:09:55;8.50;99.90
24384;DHT22;12504;52.870;8.798;2023-02-11T18:12:24;8.40;99.90
24384;DHT22;12504;52.870;8.798;2023-02-11T18:14:51;8.50;99.90